Expeditions — WDB6455 — position and weather

sailwx.info

Track history (hours):
 
Tides and Currents Weather Stations Pressure Air Temp Water Temp Dewpoint Dewpoint Depression Visibility Wind Speed Wind Dir Waves Ship Positions

Expeditions

Owner: Expeditions NW, Inc., Port Angeles, WA. More information available from US FCC via Universal Licensing System and Coast Guard Vessel Documentation Center.

Last reported at 2017-Oct-10 13:19 UTC. Time now 2017-Oct-22 10:14 UTC.
Position N 32°42' W 117°09'.
Warning: this ship's position is 11 days out of date.

Length 30 m; draft 2 m.

MMSI: 366053000.

Date/timePositionNaut miles runAvg speedWind from/ knotsBaromVisibWave heightAir tempDewpointWater temp
2017-Oct-10 13:19N 32°42' W 117°09'0 0.1
2017-Oct-10 12:50N 32°42' W 117°09'0 0.0
2017-Oct-10 11:20N 32°42' W 117°09'2 5.3
2017-Oct-10 11:01N 32°43' W 117°11'5 9.6
2017-Oct-10 10:31N 32°39' W 117°14'713.5
2017-Oct-10 10:00N 32°33' W 117°18'713.7
2017-Oct-10 09:31N 32°27' W 117°23'713.9
2017-Oct-10 09:00N 32°21' W 117°27'714.2
2017-Oct-10 08:30N 32°15' W 117°31'714.3
2017-Oct-10 08:00N 32°09' W 117°36'914.0
2017-Oct-10 07:20N 32°01' W 117°41'513.9
2017-Oct-10 06:58N 31°56' W 117°44'613.9
2017-Oct-10 06:30N 31°51' W 117°48'713.7
2017-Oct-10 06:00N 31°45' W 117°52'2713.6
2017-Oct-10 04:02N 31°24' W 118°11'313.9
2017-Oct-10 03:51N 31°22' W 118°13'614.0
2017-Oct-10 03:26N 31°17' W 118°17'1013.6
2017-Oct-10 02:42N 31°09' W 118°24'313.5
2017-Oct-10 02:30N 31°07' W 118°25'8713.4
2017-Oct-09 20:02N 29°57' W 119°24'013.8
2017-Oct-09 20:00N 29°56' W 119°25'2413.3
2017-Oct-09 18:11N 29°38' W 119°44'51 2.2
2017-Oct-08 19:11N 30°15' W 119°02'313.6
2017-Oct-08 18:57N 30°17' W 118°59'2413.4
2017-Oct-08 17:09N 30°38' W 118°46'413.3
2017-Oct-08 16:51N 30°42' W 118°44'1013.5
2017-Oct-08 16:05N 30°51' W 118°39'113.4
2017-Oct-08 16:00N 30°52' W 118°38'713.3
2017-Oct-08 15:30N 30°58' W 118°35'713.1
2017-Oct-08 15:00N 31°04' W 118°31'813.0
2017-Oct-08 14:22N 31°11' W 118°27'513.3
2017-Oct-08 13:59N 31°16' W 118°24'613.1
2017-Oct-08 13:30N 31°21' W 118°20'713.4
2017-Oct-08 12:59N 31°26' W 118°15'613.5
2017-Oct-08 12:30N 31°32' W 118°10'713.3
2017-Oct-08 12:01N 31°37' W 118°06'612.9
2017-Oct-08 11:30N 31°42' W 118°02'612.7
2017-Oct-08 11:00N 31°47' W 117°57'612.7
2017-Oct-08 10:30N 31°53' W 117°53'613.0
2017-Oct-08 10:00N 31°58' W 117°48'712.7
2017-Oct-08 09:29N 32°03' W 117°44'612.6
2017-Oct-08 08:59N 32°09' W 117°40'712.8
2017-Oct-08 08:27N 32°14' W 117°35'612.7
2017-Oct-08 08:01N 32°19' W 117°31'612.9
2017-Oct-08 07:31N 32°24' W 117°27'713.0
2017-Oct-08 07:01N 32°29' W 117°22'713.2
2017-Oct-08 06:31N 32°34' W 117°17'612.2
2017-Oct-08 06:01N 32°40' W 117°14'4 7.3
2017-Oct-08 05:30N 32°43' W 117°12'  
Track history (hours):
 
Tides and Currents Weather Stations Pressure Air Temp Water Temp Dewpoint Dewpoint Depression Visibility Wind Speed Wind Dir Waves Ship Positions

Expeditions

Owner: Expeditions NW, Inc., Port Angeles, WA. More information available from US FCC via Universal Licensing System and Coast Guard Vessel Documentation Center.

Last reported at 2017-Oct-10 13:19 UTC. Time now 2017-Oct-22 10:14 UTC.
Position N 32°42' W 117°09'.
Warning: this ship's position is 11 days out of date.

Length 30 m; draft 2 m.

MMSI: 366053000.

Date/timePositionNaut miles runAvg speedWind from/ knotsBaromVisibWave heightAir tempDewpointWater temp
2017-Oct-10 13:19N 32°42' W 117°09'0 0.1
2017-Oct-10 12:50N 32°42' W 117°09'0 0.0
2017-Oct-10 11:20N 32°42' W 117°09'2 5.3
2017-Oct-10 11:01N 32°43' W 117°11'5 9.6
2017-Oct-10 10:31N 32°39' W 117°14'713.5
2017-Oct-10 10:00N 32°33' W 117°18'713.7
2017-Oct-10 09:31N 32°27' W 117°23'713.9
2017-Oct-10 09:00N 32°21' W 117°27'714.2
2017-Oct-10 08:30N 32°15' W 117°31'714.3
2017-Oct-10 08:00N 32°09' W 117°36'914.0
2017-Oct-10 07:20N 32°01' W 117°41'513.9
2017-Oct-10 06:58N 31°56' W 117°44'613.9
2017-Oct-10 06:30N 31°51' W 117°48'713.7
2017-Oct-10 06:00N 31°45' W 117°52'2713.6
2017-Oct-10 04:02N 31°24' W 118°11'313.9
2017-Oct-10 03:51N 31°22' W 118°13'614.0
2017-Oct-10 03:26N 31°17' W 118°17'1013.6
2017-Oct-10 02:42N 31°09' W 118°24'313.5
2017-Oct-10 02:30N 31°07' W 118°25'8713.4
2017-Oct-09 20:02N 29°57' W 119°24'013.8
2017-Oct-09 20:00N 29°56' W 119°25'2413.3
2017-Oct-09 18:11N 29°38' W 119°44'51 2.2
2017-Oct-08 19:11N 30°15' W 119°02'313.6
2017-Oct-08 18:57N 30°17' W 118°59'2413.4
2017-Oct-08 17:09N 30°38' W 118°46'413.3
2017-Oct-08 16:51N 30°42' W 118°44'1013.5
2017-Oct-08 16:05N 30°51' W 118°39'113.4
2017-Oct-08 16:00N 30°52' W 118°38'713.3
2017-Oct-08 15:30N 30°58' W 118°35'713.1
2017-Oct-08 15:00N 31°04' W 118°31'813.0
2017-Oct-08 14:22N 31°11' W 118°27'513.3
2017-Oct-08 13:59N 31°16' W 118°24'613.1
2017-Oct-08 13:30N 31°21' W 118°20'713.4
2017-Oct-08 12:59N 31°26' W 118°15'613.5
2017-Oct-08 12:30N 31°32' W 118°10'713.3
2017-Oct-08 12:01N 31°37' W 118°06'612.9
2017-Oct-08 11:30N 31°42' W 118°02'612.7
2017-Oct-08 11:00N 31°47' W 117°57'612.7
2017-Oct-08 10:30N 31°53' W 117°53'613.0
2017-Oct-08 10:00N 31°58' W 117°48'712.7
2017-Oct-08 09:29N 32°03' W 117°44'612.6
2017-Oct-08 08:59N 32°09' W 117°40'712.8
2017-Oct-08 08:27N 32°14' W 117°35'612.7
2017-Oct-08 08:01N 32°19' W 117°31'612.9
2017-Oct-08 07:31N 32°24' W 117°27'713.0
2017-Oct-08 07:01N 32°29' W 117°22'713.2
2017-Oct-08 06:31N 32°34' W 117°17'612.2
2017-Oct-08 06:01N 32°40' W 117°14'4 7.3
2017-Oct-08 05:30N 32°43' W 117°12'  

Dump ship's entire track history